createdAt,value
2015-03-02T00:00:00.342Z,20.7
2015-03-02T00:00:18.767Z,20.6
2015-03-02T00:00:37.279Z,20.7
2015-03-02T00:00:55.729Z,20.7
2015-03-02T00:01:14.254Z,20.7
2015-03-02T00:01:32.796Z,20.6
2015-03-02T00:01:51.178Z,20.6
2015-03-02T00:02:09.734Z,20.6
2015-03-02T00:02:28.200Z,20.6
2015-03-02T00:02:46.582Z,20.6
2015-03-02T00:03:05.045Z,20.6
2015-03-02T00:03:23.584Z,20.6
2015-03-02T00:03:42.053Z,20.6
2015-03-02T00:04:00.497Z,20.6
2015-03-02T00:04:18.893Z,20.6
2015-03-02T00:04:37.472Z,20.6
2015-03-02T00:04:56.052Z,20.6
2015-03-02T00:05:14.679Z,20.6
2015-03-02T00:05:32.416Z,20.6
2015-03-02T00:05:51.060Z,20.5
2015-03-02T00:06:09.509Z,20.5
2015-03-02T00:06:27.921Z,20.5
2015-03-02T00:06:46.313Z,20.5
2015-03-02T00:07:04.838Z,20.5
2015-03-02T00:07:23.228Z,20.5
2015-03-02T00:07:41.871Z,20.5
2015-03-02T00:08:00.283Z,20.5
2015-03-02T00:08:18.733Z,20.5
2015-03-02T00:08:37.247Z,20.5
2015-03-02T00:08:55.650Z,20.5
2015-03-02T00:09:14.237Z,20.5
2015-03-02T00:09:32.768Z,20.5
2015-03-02T00:09:51.465Z,20.5
2015-03-02T00:10:09.842Z,20.5
2015-03-02T00:10:28.379Z,20.5
2015-03-02T00:10:46.786Z,20.5
2015-03-02T00:11:05.275Z,20.5
2015-03-02T00:11:23.653Z,20.5
2015-03-02T00:11:42.224Z,20.5
2015-03-02T00:12:00.609Z,20.5
2015-03-02T00:12:19.353Z,20.5
2015-03-02T00:12:37.849Z,20.5
2015-03-02T00:12:56.234Z,20.5
2015-03-02T00:13:14.963Z,20.5
2015-03-02T00:13:33.623Z,20.5
2015-03-02T00:13:51.353Z,20.5
2015-03-02T00:14:09.937Z,20.5
2015-03-02T00:14:28.443Z,20.5
2015-03-02T00:14:46.861Z,20.5
2015-03-02T00:15:05.301Z,20.5
2015-03-02T00:15:23.996Z,20.5
2015-03-02T00:15:42.545Z,20.5
2015-03-02T00:16:00.935Z,20.5
2015-03-02T00:16:19.428Z,20.6
2015-03-02T00:16:37.911Z,20.6
2015-03-02T00:16:56.490Z,20.6
2015-03-02T00:17:14.907Z,20.6
2015-03-02T00:17:33.585Z,20.6
2015-03-02T00:17:52.083Z,20.6
2015-03-02T00:18:10.483Z,20.6
2015-03-02T00:18:29.092Z,20.6
2015-03-02T00:18:47.581Z,20.5
2015-03-02T00:19:05.983Z,20.5
2015-03-02T00:19:24.370Z,20.5
2015-03-02T00:19:43.034Z,20.5
2015-03-02T00:20:01.616Z,20.6
2015-03-02T00:20:20.220Z,20.5
2015-03-02T00:20:38.601Z,20.6
2015-03-02T00:20:57.223Z,20.5
2015-03-02T00:21:15.804Z,20.5
2015-03-02T00:21:34.483Z,20.5
2015-03-02T00:21:53.011Z,20.5
2015-03-02T00:22:11.715Z,20.5
2015-03-02T00:22:30.352Z,20.5
2015-03-02T00:22:49.087Z,20.5
2015-03-02T00:23:07.605Z,20.5
2015-03-02T00:23:26.136Z,20.5
2015-03-02T00:23:44.550Z,20.5
2015-03-02T00:24:03.161Z,20.5
2015-03-02T00:24:21.087Z,20.5
2015-03-02T00:24:39.541Z,20.5
2015-03-02T00:24:58.057Z,20.5
2015-03-02T00:25:16.644Z,20.5
2015-03-02T00:25:35.262Z,20.5
2015-03-02T00:25:53.652Z,20.5
2015-03-02T00:26:12.051Z,20.5
2015-03-02T00:26:30.596Z,20.5
2015-03-02T00:26:49.072Z,20.5
2015-03-02T00:27:07.836Z,20.5
2015-03-02T00:27:26.374Z,20.5
2015-03-02T00:27:45.153Z,20.4
2015-03-02T00:28:03.715Z,20.5
2015-03-02T00:28:22.246Z,20.5
2015-03-02T00:28:40.959Z,20.5
2015-03-02T00:28:59.345Z,20.5
2015-03-02T00:29:17.792Z,20.5
2015-03-02T00:29:36.346Z,20.4
2015-03-02T00:29:54.731Z,20.4
2015-03-02T00:30:13.112Z,20.5
2015-03-02T00:30:31.556Z,20.5
2015-03-02T00:30:50.112Z,20.4
2015-03-02T00:31:08.596Z,20.4
2015-03-02T00:31:27.469Z,20.4
2015-03-02T00:31:46.114Z,20.4
2015-03-02T00:32:04.519Z,20.5
2015-03-02T00:32:22.817Z,20.4
2015-03-02T00:32:41.412Z,20.4
2015-03-02T00:32:59.947Z,20.4
2015-03-02T00:33:18.412Z,20.4
2015-03-02T00:33:36.185Z,20.5
2015-03-02T00:33:54.654Z,20.5
2015-03-02T00:34:13.248Z,20.5
2015-03-02T00:34:31.857Z,20.5
2015-03-02T00:34:50.266Z,20.4
2015-03-02T00:35:08.696Z,20.5
2015-03-02T00:35:27.095Z,20.5
2015-03-02T00:35:45.704Z,20.5
2015-03-02T00:36:04.334Z,20.5
2015-03-02T00:36:22.719Z,20.5
2015-03-02T00:36:41.153Z,20.5
2015-03-02T00:36:59.535Z,20.5
2015-03-02T00:37:17.995Z,20.4
2015-03-02T00:37:35.733Z,20.5
2015-03-02T00:37:54.230Z,20.5
2015-03-02T00:38:12.628Z,20.5
2015-03-02T00:38:31.056Z,20.5
2015-03-02T00:38:49.440Z,20.5
2015-03-02T00:39:07.943Z,20.5
2015-03-02T00:39:26.360Z,20.5
2015-03-02T00:39:44.762Z,20.5
2015-03-02T00:40:03.224Z,20.5
2015-03-02T00:40:21.686Z,20.5
2015-03-02T00:40:40.072Z,20.5
2015-03-02T00:40:58.506Z,20.5
2015-03-02T00:41:16.898Z,20.5
2015-03-02T00:41:35.283Z,20.5
2015-03-02T00:41:53.782Z,20.5
2015-03-02T00:42:12.280Z,20.6
2015-03-02T00:42:30.667Z,20.6
2015-03-02T00:42:48.414Z,20.6
2015-03-02T00:43:06.950Z,20.6
2015-03-02T00:43:25.442Z,20.6
2015-03-02T00:43:44.039Z,20.6
2015-03-02T00:44:02.623Z,20.6
2015-03-02T00:44:21.044Z,20.6
2015-03-02T00:44:39.448Z,20.6
2015-03-02T00:44:57.997Z,20.6
2015-03-02T00:45:16.378Z,20.5
2015-03-02T00:45:34.783Z,20.4
2015-03-02T00:45:53.288Z,20.5
2015-03-02T00:46:11.947Z,20.5
2015-03-02T00:46:30.468Z,20.5
2015-03-02T00:46:48.928Z,20.5
2015-03-02T00:47:07.309Z,20.5
2015-03-02T00:47:25.721Z,20.6
2015-03-02T00:47:44.112Z,20.6
2015-03-02T00:48:02.637Z,20.6
2015-03-02T00:48:21.120Z,20.6
2015-03-02T00:48:39.573Z,20.6
2015-03-02T00:48:57.970Z,20.6
2015-03-02T00:49:16.599Z,20.5
2015-03-02T00:49:35.133Z,20.5
2015-03-02T00:49:53.768Z,20.5
2015-03-02T00:50:12.188Z,20.4
2015-03-02T00:50:30.764Z,20.5
2015-03-02T00:50:49.552Z,20.5
2015-03-02T00:51:08.325Z,20.5
2015-03-02T00:51:26.843Z,20.5
2015-03-02T00:51:45.535Z,20.5
2015-03-02T00:52:04.092Z,20.6
2015-03-02T00:52:22.570Z,20.6
2015-03-02T00:52:40.958Z,20.6
2015-03-02T00:52:59.427Z,20.6
2015-03-02T00:53:17.808Z,20.7
2015-03-02T00:53:35.807Z,20.7
2015-03-02T00:53:54.281Z,20.7
2015-03-02T00:54:12.662Z,20.7
2015-03-02T00:54:31.084Z,20.7
2015-03-02T00:54:49.715Z,20.7
2015-03-02T00:55:08.111Z,20.6
2015-03-02T00:55:26.520Z,20.6
2015-03-02T00:55:45.030Z,20.7
2015-03-02T00:56:03.718Z,20.7
2015-03-02T00:56:22.101Z,20.7
2015-03-02T00:56:40.842Z,20.6
2015-03-02T00:56:59.604Z,20.6
2015-03-02T00:57:18.075Z,20.6
2015-03-02T00:57:36.663Z,20.7
2015-03-02T00:57:55.109Z,20.7
2015-03-02T00:58:13.490Z,20.7
2015-03-02T00:58:32.111Z,20.7
2015-03-02T00:58:50.550Z,20.7
2015-03-02T00:59:08.977Z,20.7
2015-03-02T00:59:27.471Z,20.8
2015-03-02T00:59:45.856Z,20.8
2015-03-02T01:00:04.235Z,20.8
2015-03-02T01:00:22.635Z,20.7
2015-03-02T01:00:41.235Z,20.8
2015-03-02T01:01:00.009Z,20.8
2015-03-02T01:01:18.592Z,20.8
2015-03-02T01:01:37.100Z,20.8
2015-03-02T01:02:59.713Z,20.9
2015-03-02T01:03:18.431Z,20.9
2015-03-02T01:03:37.013Z,20.9
2015-03-02T01:03:55.528Z,20.9
2015-03-02T01:04:14.108Z,20.9
2015-03-02T01:04:32.517Z,20.8
2015-03-02T01:04:50.948Z,20.9
2015-03-02T01:05:09.399Z,20.9
2015-03-02T01:05:28.121Z,20.9
2015-03-02T01:05:46.510Z,20.9
2015-03-02T01:06:05.014Z,20.9
2015-03-02T01:06:23.622Z,20.8
2015-03-02T01:06:42.219Z,20.8
2015-03-02T01:07:00.603Z,20.8
2015-03-02T01:07:19.224Z,20.9
2015-03-02T01:07:37.609Z,20.9
2015-03-02T01:07:56.047Z,20.7
2015-03-02T01:08:14.431Z,20.8
2015-03-02T01:08:32.865Z,20.8
2015-03-02T01:08:51.449Z,20.8
2015-03-02T01:09:09.903Z,20.8
2015-03-02T01:09:28.429Z,20.7
2015-03-02T01:09:46.865Z,20.7
2015-03-02T01:10:05.406Z,20.7
2015-03-02T01:10:24.077Z,20.6
2015-03-02T01:10:42.477Z,20.7
2015-03-02T01:11:01.230Z,20.7
2015-03-02T01:11:19.710Z,20.7
2015-03-02T01:11:38.115Z,20.7
2015-03-02T01:11:56.505Z,20.7
2015-03-02T01:12:14.983Z,20.7
2015-03-02T01:12:33.660Z,20.7
2015-03-02T01:12:52.115Z,20.7
2015-03-02T01:13:10.531Z,20.7
2015-03-02T01:13:29.061Z,20.7
2015-03-02T01:13:47.521Z,20.7
2015-03-02T01:14:06.020Z,20.7
2015-03-02T01:14:24.548Z,20.7
2015-03-02T01:14:43.320Z,20.7
2015-03-02T01:15:01.755Z,20.7
2015-03-02T01:15:20.582Z,20.8
2015-03-02T01:15:39.148Z,20.8
2015-03-02T01:15:57.807Z,20.8
2015-03-02T01:16:16.246Z,20.8
2015-03-02T01:16:34.946Z,20.8
2015-03-02T01:16:53.652Z,20.8
2015-03-02T01:17:12.120Z,20.8
2015-03-02T01:17:30.595Z,20.9
2015-03-02T01:17:48.995Z,20.9
2015-03-02T01:18:07.375Z,20.9
2015-03-02T01:18:25.963Z,20.8
2015-03-02T01:18:44.348Z,20.9
2015-03-02T01:19:02.755Z,20.9
2015-03-02T01:19:21.135Z,20.9
2015-03-02T01:19:39.638Z,20.9
2015-03-02T01:19:58.032Z,20.9
2015-03-02T01:20:16.868Z,20.9
2015-03-02T01:20:35.447Z,20.9
2015-03-02T01:20:53.831Z,20.9
2015-03-02T01:21:12.212Z,20.9
2015-03-02T01:21:30.859Z,20.9
2015-03-02T01:21:49.248Z,21
2015-03-02T01:22:07.747Z,21
2015-03-02T01:22:26.276Z,21
2015-03-02T01:22:44.941Z,21.1
2015-03-02T01:23:03.599Z,21.1
2015-03-02T01:23:21.997Z,21.1
2015-03-02T01:23:40.606Z,21.1
2015-03-02T01:23:59.228Z,21
2015-03-02T01:24:17.613Z,21.1
2015-03-02T01:24:36.169Z,21.1
2015-03-02T01:24:54.599Z,21.1
2015-03-02T01:25:13.505Z,21.1
2015-03-02T01:25:32.822Z,21
2015-03-02T01:25:51.230Z,21
2015-03-02T01:26:09.829Z,21
2015-03-02T01:26:28.290Z,21
2015-03-02T01:26:46.990Z,21
2015-03-02T01:27:05.753Z,21
2015-03-02T01:27:24.334Z,21
2015-03-02T01:27:42.846Z,21
2015-03-02T01:28:01.322Z,21
2015-03-02T01:28:20.013Z,21.1
2015-03-02T01:28:38.396Z,21.1
2015-03-02T01:28:56.820Z,21.1
2015-03-02T01:29:15.216Z,21.1
2015-03-02T01:29:34.205Z,21.1
2015-03-02T01:29:52.689Z,21.1
2015-03-02T01:30:11.250Z,21.1
2015-03-02T01:30:29.715Z,21.1
2015-03-02T01:30:48.512Z,21.1
2015-03-02T01:31:06.903Z,21.1
2015-03-02T01:31:25.342Z,21.1
2015-03-02T01:31:43.826Z,21
2015-03-02T01:32:02.296Z,21
2015-03-02T01:32:20.677Z,21
2015-03-02T01:32:39.057Z,21
2015-03-02T01:32:57.679Z,21
2015-03-02T01:33:16.105Z,21
2015-03-02T01:33:34.538Z,21.1
2015-03-02T01:33:52.917Z,21.1
2015-03-02T01:34:11.472Z,21.1
2015-03-02T01:34:29.960Z,21.1
2015-03-02T01:34:48.593Z,21.1
2015-03-02T01:35:06.317Z,21.1
2015-03-02T01:35:24.701Z,21.1
2015-03-02T01:35:43.531Z,21.1
2015-03-02T01:36:01.929Z,21.1
2015-03-02T01:36:20.318Z,21.1
2015-03-02T01:36:38.969Z,21.1
2015-03-02T01:36:57.401Z,21
2015-03-02T01:37:15.981Z,21
2015-03-02T01:37:34.437Z,21.1
2015-03-02T01:37:52.827Z,21.1
2015-03-02T01:38:11.228Z,21
2015-03-02T01:38:29.650Z,21.1
2015-03-02T01:38:48.035Z,21.1
2015-03-02T01:39:06.415Z,21.2
2015-03-02T01:39:24.931Z,21.2
2015-03-02T01:39:43.367Z,21.2
2015-03-02T01:40:01.858Z,21.2
2015-03-02T01:40:20.248Z,21.2
2015-03-02T01:40:38.666Z,21.2
2015-03-02T01:40:57.063Z,21.2
2015-03-02T01:41:15.482Z,21.2
2015-03-02T01:41:33.867Z,21.2
2015-03-02T01:41:52.280Z,21.2
2015-03-02T01:42:10.869Z,21.2
2015-03-02T01:42:29.296Z,21.2
2015-03-02T01:42:47.676Z,21.2
2015-03-02T01:43:06.112Z,21.3
2015-03-02T01:43:24.014Z,21.3
2015-03-02T01:43:42.602Z,21.3
2015-03-02T01:44:01.180Z,21.3
2015-03-02T01:44:19.689Z,21.3
2015-03-02T01:44:38.271Z,21.3
2015-03-02T01:44:56.796Z,21.3
2015-03-02T01:45:15.176Z,21.3
2015-03-02T01:45:33.565Z,21.3
2015-03-02T01:45:51.998Z,21.3
2015-03-02T01:46:10.381Z,21.3
2015-03-02T01:46:29.022Z,21.1
2015-03-02T01:46:47.435Z,21.2
2015-03-02T01:47:05.821Z,21.2
2015-03-02T01:47:24.205Z,21.2
2015-03-02T01:47:42.791Z,21.2
2015-03-02T01:48:01.182Z,21.2
2015-03-02T01:48:19.910Z,21.3
2015-03-02T01:48:38.443Z,21.2
2015-03-02T01:48:56.873Z,21.2
2015-03-02T01:49:15.381Z,21.2
2015-03-02T01:49:33.892Z,21.2
2015-03-02T01:49:52.292Z,21.2
2015-03-02T01:50:10.993Z,21.1
2015-03-02T01:50:29.444Z,21.1
2015-03-02T01:50:47.974Z,21.2
2015-03-02T01:51:06.562Z,21.2
2015-03-02T01:51:25.117Z,21.2
2015-03-02T01:51:42.844Z,21.2
2015-03-02T01:52:01.441Z,21.2
2015-03-02T01:52:19.861Z,21.2
2015-03-02T01:52:38.248Z,21.2
2015-03-02T01:52:56.736Z,21.2
2015-03-02T01:53:15.153Z,21.2
2015-03-02T01:53:33.538Z,21.2
2015-03-02T01:53:51.957Z,21.1
2015-03-02T01:54:10.360Z,21.2
2015-03-02T01:54:28.744Z,21.2
2015-03-02T01:54:47.263Z,21
2015-03-02T01:55:05.844Z,21.1
2015-03-02T01:55:24.229Z,21.1
2015-03-02T01:55:42.609Z,21.2
2015-03-02T01:56:01.203Z,21.1
2015-03-02T01:56:19.589Z,21.1
2015-03-02T01:56:37.999Z,21.1
2015-03-02T01:56:56.393Z,21.1
2015-03-02T01:57:14.291Z,21.2
2015-03-02T01:57:32.874Z,21.2
2015-03-02T01:57:51.266Z,21.2
2015-03-02T01:58:09.698Z,21.1
2015-03-02T01:58:28.109Z,21.1
2015-03-02T01:58:46.491Z,21.1
2015-03-02T01:59:04.903Z,21.2
2015-03-02T01:59:23.333Z,21.2
2015-03-02T01:59:41.722Z,21.2
2015-03-02T02:00:00.297Z,21.1
2015-03-02T02:00:18.682Z,21.1
2015-03-02T02:00:37.171Z,21.1
2015-03-02T02:00:55.450Z,21.1
2015-03-02T02:01:13.864Z,21.1
2015-03-02T02:01:32.248Z,21.1
2015-03-02T02:01:50.730Z,21.2
2015-03-02T02:02:09.186Z,21.2
2015-03-02T02:02:27.843Z,21.2
2015-03-02T02:02:46.227Z,21.2
2015-03-02T02:03:04.749Z,21
2015-03-02T02:03:23.130Z,21.1
2015-03-02T02:03:41.713Z,21.2
2015-03-02T02:04:00.340Z,21.1
2015-03-02T02:04:18.911Z,21.1
2015-03-02T02:04:37.390Z,21.1
2015-03-02T02:04:55.818Z,21.2
2015-03-02T02:05:14.203Z,21.2
2015-03-02T02:05:32.790Z,21.2
2015-03-02T02:05:51.257Z,21.2
2015-03-02T02:06:09.771Z,20.9
2015-03-02T02:06:28.357Z,21
2015-03-02T02:06:46.863Z,21
2015-03-02T02:07:05.251Z,21
2015-03-02T02:07:23.700Z,21
2015-03-02T02:07:42.077Z,21
2015-03-02T02:08:00.505Z,21.1
2015-03-02T02:08:19.090Z,21.1
2015-03-02T02:08:36.874Z,21
2015-03-02T02:08:55.279Z,21
2015-03-02T02:09:13.874Z,21
2015-03-02T02:09:32.256Z,21
2015-03-02T02:09:50.917Z,21
2015-03-02T02:10:09.300Z,21
2015-03-02T02:10:28.613Z,21
2015-03-02T02:10:47.275Z,20.9
2015-03-02T02:11:05.804Z,21
2015-03-02T02:11:24.285Z,21
2015-03-02T02:11:42.816Z,21
2015-03-02T02:12:01.270Z,21
2015-03-02T02:12:19.690Z,21
2015-03-02T02:12:38.105Z,20.9
2015-03-02T02:12:56.504Z,20.9
2015-03-02T02:13:15.195Z,20.9
2015-03-02T02:13:33.783Z,20.9
2015-03-02T02:13:52.292Z,20.9
2015-03-02T02:14:10.696Z,21
2015-03-02T02:14:29.209Z,21
2015-03-02T02:14:47.614Z,21
2015-03-02T02:15:06.429Z,21
2015-03-02T02:15:25.018Z,21
2015-03-02T02:15:43.702Z,21
2015-03-02T02:16:02.087Z,21
2015-03-02T02:16:20.591Z,21
2015-03-02T02:16:38.973Z,21
2015-03-02T02:21:08.712Z,20.9
2015-03-02T02:21:27.220Z,20.9
2015-03-02T02:21:45.749Z,20.9
2015-03-02T02:22:04.130Z,20.9
2015-03-02T02:22:22.516Z,20.9
2015-03-02T02:22:40.755Z,20.9
2015-03-02T02:22:59.145Z,20.9
2015-03-02T02:23:17.526Z,20.9
2015-03-02T02:23:35.922Z,20.9
2015-03-02T02:23:54.332Z,20.9
2015-03-02T02:24:12.735Z,20.8
2015-03-02T02:24:31.144Z,20.8
2015-03-02T02:24:49.858Z,20.9
2015-03-02T02:25:08.401Z,20.9
2015-03-02T02:25:26.895Z,20.8
2015-03-02T02:25:45.478Z,20.9
2015-03-02T02:26:03.882Z,20.8
2015-03-02T02:26:22.474Z,20.9
2015-03-02T02:26:41.077Z,20.8
2015-03-02T02:26:59.541Z,20.9
2015-03-02T02:27:18.184Z,20.9
2015-03-02T02:27:36.781Z,20.8
2015-03-02T02:27:55.177Z,20.9
2015-03-02T02:28:13.709Z,20.8
2015-03-02T02:28:32.301Z,20.8
2015-03-02T02:28:50.735Z,20.8
2015-03-02T02:29:09.497Z,20.8
2015-03-02T02:29:27.233Z,20.9
2015-03-02T02:29:45.690Z,20.9
2015-03-02T02:30:04.071Z,20.9
2015-03-02T02:30:22.655Z,20.9
2015-03-02T02:30:41.072Z,20.9
2015-03-02T02:30:59.476Z,20.9
2015-03-02T02:31:17.904Z,20.6
2015-03-02T02:31:36.328Z,20.7
2015-03-02T02:31:54.715Z,20.8
2015-03-02T02:32:13.121Z,20.8
2015-03-02T02:32:31.522Z,20.8
2015-03-02T02:32:49.380Z,20.8
2015-03-02T02:33:07.966Z,20.8
2015-03-02T02:33:26.592Z,20.8
2015-03-02T02:33:44.980Z,20.9
2015-03-02T02:34:03.462Z,20.9
2015-03-02T02:34:21.970Z,20.7
2015-03-02T02:34:40.363Z,20.8
2015-03-02T02:34:58.807Z,20.8
2015-03-02T02:35:17.381Z,20.8
2015-03-02T02:35:35.763Z,20.8
2015-03-02T02:35:53.887Z,20.8
2015-03-02T02:36:11.814Z,20.8
2015-03-02T02:36:30.281Z,20.8
2015-03-02T02:37:12.182Z,20.8
2015-03-02T02:37:30.563Z,20.8
2015-03-02T02:37:49.233Z,20.8
2015-03-02T02:38:07.618Z,20.9
2015-03-02T02:38:26.320Z,20.9
2015-03-02T02:38:44.903Z,20.9
2015-03-02T02:39:03.336Z,20.9
2015-03-02T02:39:21.908Z,20.9
2015-03-02T02:39:40.389Z,21
2015-03-02T02:39:58.790Z,21
2015-03-02T02:40:17.365Z,21
2015-03-02T02:40:35.749Z,21
2015-03-02T02:40:54.362Z,21.1
2015-03-02T02:41:12.930Z,21.1
2015-03-02T02:41:31.611Z,21.1
2015-03-02T02:41:50.147Z,21.1
2015-03-02T02:42:08.552Z,21.1
2015-03-02T02:42:26.933Z,21.2
2015-03-02T02:42:45.350Z,21.2
2015-03-02T02:43:03.934Z,21.2
2015-03-02T02:43:22.590Z,21.2
2015-03-02T02:43:41.344Z,20.9
2015-03-02T02:43:59.741Z,21
2015-03-02T02:44:18.122Z,21.1
2015-03-02T02:44:36.953Z,21.1
2015-03-02T02:44:55.378Z,20.8
2015-03-02T02:45:13.871Z,20.8
2015-03-02T02:45:32.386Z,20.9
2015-03-02T02:45:50.779Z,20.9
2015-03-02T02:46:09.165Z,20.9
2015-03-02T02:46:27.566Z,21
2015-03-02T02:46:46.078Z,21
2015-03-02T02:47:04.459Z,21
2015-03-02T02:47:22.191Z,21
2015-03-02T02:47:40.758Z,21
2015-03-02T02:47:59.139Z,21
2015-03-02T02:48:17.537Z,21.1
2015-03-02T02:48:36.050Z,21.1
2015-03-02T02:48:54.642Z,21.2
2015-03-02T02:49:13.028Z,20.9
2015-03-02T02:49:31.555Z,21
2015-03-02T02:49:49.937Z,21.1
2015-03-02T02:50:08.423Z,21.1
2015-03-02T02:50:26.805Z,21.1
2015-03-02T02:50:45.392Z,21.1
2015-03-02T02:51:03.775Z,21.2
2015-03-02T02:51:22.579Z,21.2
2015-03-02T02:51:41.067Z,21.1
2015-03-02T02:51:59.580Z,21.2
2015-03-02T02:52:18.165Z,21.1
2015-03-02T02:52:36.654Z,21.2
2015-03-02T02:53:59.276Z,21.2
2015-03-02T02:54:17.657Z,21.2
2015-03-02T02:54:36.064Z,21.2
2015-03-02T02:54:54.634Z,21.2
2015-03-02T02:55:13.040Z,21.2
2015-03-02T02:55:32.594Z,21.2
2015-03-02T02:55:51.010Z,21.2
2015-03-02T02:56:09.424Z,21.3
2015-03-02T02:56:28.155Z,21.3
2015-03-02T02:56:46.581Z,21.3
2015-03-02T02:57:04.996Z,21.3
2015-03-02T02:57:23.466Z,21.3
2015-03-02T02:57:41.849Z,21.4
2015-03-02T02:58:00.233Z,21.4
2015-03-02T02:58:18.678Z,21.4
2015-03-02T02:58:37.059Z,21.4
2015-03-02T02:58:55.442Z,21.4
2015-03-02T02:59:14.094Z,21.4
2015-03-02T02:59:32.479Z,21.4
2015-03-02T02:59:50.880Z,21.5
2015-03-02T03:00:09.262Z,21.5
2015-03-02T03:00:27.846Z,21.5
2015-03-02T03:00:46.230Z,21.5
2015-03-02T03:01:04.643Z,21.5
2015-03-02T03:01:23.249Z,21.5
2015-03-02T03:01:41.636Z,21.5
2015-03-02T03:02:00.020Z,21.5
2015-03-02T03:02:18.406Z,21.5
2015-03-02T03:02:36.791Z,21.5
2015-03-02T03:02:55.376Z,21.5
2015-03-02T03:03:13.759Z,21.5
2015-03-02T03:03:32.142Z,21.5
2015-03-02T03:03:50.524Z,21.5
2015-03-02T03:04:08.906Z,21.5
2015-03-02T03:04:27.286Z,21.5
2015-03-02T03:04:45.671Z,21.5
2015-03-02T03:05:04.092Z,21.6
2015-03-02T03:05:22.705Z,21.6
2015-03-02T03:05:41.261Z,21.5
2015-03-02T03:05:59.686Z,21.6
2015-03-02T03:06:18.073Z,21.6
2015-03-02T03:06:36.519Z,21.6
2015-03-02T03:06:54.993Z,21.6
2015-03-02T03:07:13.663Z,21.6
2015-03-02T03:07:32.048Z,21.6
2015-03-02T03:07:50.436Z,21.6
2015-03-02T03:08:08.884Z,21.5
2015-03-02T03:08:27.320Z,21.5
2015-03-02T03:08:45.909Z,21.5
2015-03-02T03:09:04.395Z,21.5
2015-03-02T03:09:22.800Z,21.5
2015-03-02T03:09:41.181Z,21.5
2015-03-02T03:09:59.574Z,21.5
2015-03-02T03:10:18.154Z,21.5
2015-03-02T03:10:36.734Z,21.5
2015-03-02T03:10:55.198Z,21.5
2015-03-02T03:11:13.576Z,21.5
2015-03-02T03:11:31.954Z,21.5
2015-03-02T03:11:50.339Z,21.4
2015-03-02T03:12:08.958Z,21.4
2015-03-02T03:12:27.358Z,21.4
2015-03-02T03:12:46.141Z,21.3
2015-03-02T03:13:04.583Z,21.4
2015-03-02T03:13:23.140Z,21.4
2015-03-02T03:13:41.564Z,21.4
2015-03-02T03:14:00.137Z,21.3
2015-03-02T03:14:18.564Z,21.3
2015-03-02T03:14:36.957Z,21.3
2015-03-02T03:14:55.340Z,21.4
2015-03-02T03:15:13.725Z,21.1
2015-03-02T03:15:32.108Z,21.2
2015-03-02T03:15:50.490Z,21.3
2015-03-02T03:16:09.074Z,21.3
2015-03-02T03:16:27.457Z,21.3
2015-03-02T03:16:45.836Z,21.3
2015-03-02T03:17:03.655Z,21.3
2015-03-02T03:17:22.033Z,21.2
2015-03-02T03:17:40.417Z,21.1
2015-03-02T03:17:58.856Z,21.1
2015-03-02T03:18:17.243Z,21.1
2015-03-02T03:18:35.673Z,21.1
2015-03-02T03:18:54.352Z,21.2
2015-03-02T03:19:12.758Z,21.2
2015-03-02T03:19:31.214Z,21.1
2015-03-02T03:19:49.807Z,21.1
2015-03-02T03:20:08.277Z,21.1
2015-03-02T03:20:26.664Z,21.1
2015-03-02T03:20:45.054Z,21.1
2015-03-02T03:21:03.634Z,21.1
2015-03-02T03:21:22.225Z,21.2
2015-03-02T03:21:40.897Z,21.2
2015-03-02T03:21:59.598Z,21.2
2015-03-02T03:22:17.982Z,21.1
2015-03-02T03:22:36.363Z,21.2
2015-03-02T03:22:54.792Z,21.2
2015-03-02T03:23:13.470Z,21.2
2015-03-02T03:23:31.887Z,21.2
2015-03-02T03:23:50.271Z,21.2
2015-03-02T03:24:08.710Z,21.2
2015-03-02T03:24:27.220Z,21.1
2015-03-02T03:24:45.777Z,21.1
2015-03-02T03:25:04.223Z,20.7
2015-03-02T03:25:22.608Z,20.9
2015-03-02T03:25:41.208Z,21
2015-03-02T03:25:59.590Z,21
2015-03-02T03:26:17.970Z,21
2015-03-02T03:26:36.588Z,21
2015-03-02T03:26:54.968Z,21
2015-03-02T03:27:13.423Z,21
2015-03-02T03:27:32.020Z,21
2015-03-02T03:27:50.685Z,21.1
2015-03-02T03:28:09.069Z,21.1
2015-03-02T03:28:27.540Z,21.1
2015-03-02T03:28:45.966Z,21.1
2015-03-02T03:29:04.566Z,21.1
2015-03-02T03:29:22.978Z,21.1
2015-03-02T03:29:41.636Z,21
2015-03-02T03:30:00.018Z,20.7
2015-03-02T03:30:18.510Z,20.8
2015-03-02T03:30:36.894Z,20.9
2015-03-02T03:30:55.406Z,20.9
2015-03-02T03:31:13.785Z,21
2015-03-02T03:31:32.171Z,21
2015-03-02T03:31:50.575Z,21
2015-03-02T03:32:08.963Z,21
2015-03-02T03:32:27.345Z,21
2015-03-02T03:32:45.749Z,21
2015-03-02T03:33:04.134Z,21
2015-03-02T03:33:22.572Z,21
2015-03-02T03:33:41.120Z,20.9
2015-03-02T03:33:59.595Z,21
2015-03-02T03:34:18.197Z,21
2015-03-02T03:34:36.648Z,20.9
2015-03-02T03:34:55.230Z,20.9
2015-03-02T03:35:13.660Z,21
2015-03-02T03:35:32.044Z,21
2015-03-02T03:35:50.422Z,21.1
2015-03-02T03:36:08.175Z,21.1
2015-03-02T03:36:26.848Z,21.1
2015-03-02T03:36:45.370Z,21.1
2015-03-02T03:37:03.754Z,21.1
2015-03-02T03:37:22.311Z,21.1
2015-03-02T03:37:40.695Z,21.1
2015-03-02T03:37:59.076Z,21.1
2015-03-02T03:38:17.604Z,21.2
2015-03-02T03:39:40.220Z,21.2
2015-03-02T03:39:57.944Z,21.2
2015-03-02T03:40:16.724Z,21.2
2015-03-02T03:41:55.210Z,21.3
2015-03-02T03:42:13.920Z,21.2
2015-03-02T03:42:32.480Z,21.3
2015-03-02T03:42:51.107Z,21.2
2015-03-02T03:43:09.489Z,21.2
2015-03-02T03:43:28.050Z,21.2
2015-03-02T03:43:46.439Z,21.2
2015-03-02T03:44:04.982Z,21.2
2015-03-02T03:44:23.537Z,21.3
2015-03-02T03:44:41.992Z,21.2
2015-03-02T03:45:00.423Z,21.2
2015-03-02T03:45:19.122Z,21.1
2015-03-02T03:45:37.513Z,21.1
2015-03-02T03:45:55.896Z,21.1
2015-03-02T03:46:14.278Z,21.1
2015-03-02T03:46:53.496Z,21.1
2015-03-02T03:47:11.945Z,21.1
2015-03-02T03:47:30.461Z,21.1
2015-03-02T03:47:49.338Z,21.1
2015-03-02T03:48:07.820Z,21.1
2015-03-02T03:48:26.253Z,21.1
2015-03-02T03:48:44.711Z,21.1
2015-03-02T03:49:03.212Z,21.1
2015-03-02T03:49:21.765Z,21.1
2015-03-02T03:49:40.335Z,21
2015-03-02T03:49:58.751Z,21.1
2015-03-02T03:50:17.211Z,21
2015-03-02T03:50:35.794Z,21
2015-03-02T03:50:54.331Z,21
2015-03-02T03:51:13.036Z,21.1
2015-03-02T03:51:31.573Z,20.7
2015-03-02T03:51:49.965Z,20.9
2015-03-02T03:52:08.509Z,20.9
2015-03-02T03:52:27.135Z,20.9
2015-03-02T03:52:45.520Z,20.9
2015-03-02T03:53:03.909Z,20.9
2015-03-02T03:53:22.498Z,20.9
2015-03-02T03:53:40.878Z,20.9
2015-03-02T03:53:59.454Z,21
2015-03-02T03:54:17.832Z,21
2015-03-02T03:54:36.216Z,20.9
2015-03-02T03:54:54.777Z,21
2015-03-02T03:55:13.184Z,21
2015-03-02T03:55:31.562Z,21
2015-03-02T03:55:49.976Z,20.9
2015-03-02T03:56:08.354Z,20.9
2015-03-02T03:56:26.772Z,21
2015-03-02T03:56:53.525Z,20.9
2015-03-02T03:57:12.026Z,20.8
2015-03-02T03:57:30.408Z,20.8
2015-03-02T03:57:48.957Z,20.7
2015-03-02T03:58:07.530Z,20.7
2015-03-02T03:58:26.023Z,20.7
2015-03-02T03:58:44.547Z,20.7
2015-03-02T03:59:02.930Z,20.7
2015-03-02T03:59:21.460Z,20.6
2015-03-02T03:59:39.843Z,20.7
2015-03-02T03:59:58.293Z,20.7
2015-03-02T04:00:16.772Z,20.6
2015-03-02T04:00:35.227Z,20.6
2015-03-02T04:00:53.612Z,20.6
2015-03-02T04:01:11.997Z,20.6
2015-03-02T04:01:30.487Z,20.7
2015-03-02T04:01:48.925Z,20.7
2015-03-02T04:02:07.308Z,20.6
2015-03-02T04:02:25.693Z,20.6
2015-03-02T04:02:44.177Z,20.6
2015-03-02T04:03:02.587Z,20.6
2015-03-02T04:03:21.006Z,20.6
2015-03-02T04:03:39.521Z,20.6
2015-03-02T04:03:57.902Z,20.5
2015-03-02T04:04:16.370Z,20.5
2015-03-02T04:04:34.750Z,20.5
2015-03-02T04:04:53.159Z,20.5
2015-03-02T04:05:11.547Z,20.5
2015-03-02T04:05:29.956Z,20.5
2015-03-02T04:05:48.417Z,20.5
2015-03-02T04:06:06.797Z,20.5
2015-03-02T04:06:25.360Z,20.5
2015-03-02T04:06:43.738Z,20.5
2015-03-02T04:07:02.437Z,20.5
2015-03-02T04:07:20.933Z,20.5
2015-03-02T04:07:39.318Z,20.5
2015-03-02T04:07:57.740Z,20.5
2015-03-02T04:08:16.369Z,20.5
2015-03-02T04:08:34.861Z,20.5
2015-03-02T04:08:53.446Z,20.5
2015-03-02T04:09:11.832Z,20.5
2015-03-02T04:09:30.215Z,20.5
2015-03-02T04:09:48.722Z,20.5
2015-03-02T04:10:07.330Z,20.6
2015-03-02T04:10:25.039Z,20.5
2015-03-02T04:10:43.417Z,20.6
2015-03-02T04:11:01.804Z,20.6
2015-03-02T04:11:20.238Z,20.6
2015-03-02T04:11:38.870Z,20.6
2015-03-02T04:11:57.455Z,20.6
2015-03-02T04:12:15.836Z,20.5
2015-03-02T04:12:34.434Z,20.5
2015-03-02T04:12:52.860Z,20.5
2015-03-02T04:13:11.294Z,20.6
2015-03-02T04:13:29.904Z,20.6
2015-03-02T04:13:48.485Z,20.7
2015-03-02T04:14:06.866Z,20.6
2015-03-02T04:14:25.462Z,20.5
2015-03-02T04:14:43.857Z,20.6
2015-03-02T04:15:02.440Z,20.6
2015-03-02T04:15:20.912Z,20.6
2015-03-02T04:15:39.514Z,20.5
2015-03-02T04:15:58.281Z,20.6
2015-03-02T04:16:16.903Z,20.6
2015-03-02T04:16:35.526Z,20.6
2015-03-02T04:16:53.915Z,20.5
2015-03-02T04:17:12.556Z,20.5